createdAt,value
2019-02-04T10:16:59.804Z,7420.00
2019-02-04T10:17:59.816Z,7440.00
2019-02-04T10:18:59.815Z,7488.00
2019-02-04T10:19:59.808Z,7524.00
2019-02-04T10:20:59.768Z,7552.00
2019-02-04T10:21:59.761Z,7588.00
2019-02-04T10:22:59.782Z,7596.00
2019-02-04T10:23:59.728Z,7604.00
2019-02-04T10:24:59.740Z,7608.00
2019-02-04T10:25:59.683Z,7632.00
2019-02-04T10:26:59.747Z,7636.00
2019-02-04T10:27:59.700Z,7648.00
2019-02-04T10:28:59.692Z,7672.00
2019-02-04T10:29:59.638Z,7700.00
2019-02-04T10:30:59.652Z,7744.00
2019-02-04T10:31:59.646Z,7772.00
2019-02-04T10:32:59.607Z,7804.00
2019-02-04T10:33:59.626Z,7836.00
2019-02-04T10:34:59.619Z,7848.00
2019-02-04T10:35:59.871Z,7868.00
2019-02-04T10:36:59.806Z,7868.00
2019-02-04T10:37:59.580Z,7844.00
2019-02-04T10:38:59.545Z,7808.00
2019-02-04T10:39:59.749Z,7808.00
2019-02-04T10:40:59.542Z,7800.00
2019-02-04T10:41:59.540Z,7800.00
2019-02-04T10:42:59.513Z,7784.00
2019-02-04T10:43:59.632Z,7764.00
2019-02-04T10:44:59.509Z,7744.00
2019-02-04T10:45:59.516Z,7696.00
2019-02-04T10:46:59.468Z,7684.00
2019-02-04T10:47:59.434Z,7680.00
2019-02-04T10:48:59.423Z,7680.00
2019-02-04T10:49:59.444Z,7692.00
2019-02-04T10:50:59.463Z,7708.00
2019-02-04T10:51:59.403Z,7708.00
2019-02-04T10:52:59.383Z,7644.00
2019-02-04T10:53:59.389Z,7628.00
2019-02-04T10:54:59.541Z,7620.00
2019-02-04T10:55:59.375Z,7588.00
2019-02-04T10:56:59.355Z,7612.00
2019-02-04T10:57:59.377Z,7664.00
2019-02-04T10:58:59.319Z,7684.00
2019-02-04T10:59:59.298Z,7704.00
2019-02-04T11:00:59.319Z,7716.00
2019-02-04T11:01:59.318Z,7752.00
2019-02-04T11:02:59.268Z,7772.00
2019-02-04T11:03:59.419Z,7832.00
2019-02-04T11:04:59.327Z,7876.00
2019-02-04T11:05:59.264Z,7936.00
2019-02-04T11:06:59.266Z,7960.00
2019-02-04T11:07:59.259Z,7984.00
2019-02-04T11:08:59.242Z,8004.00
2019-02-04T11:09:59.194Z,8092.00
2019-02-04T11:10:59.239Z,8140.00
2019-02-04T11:11:59.194Z,8140.00
2019-02-04T11:12:59.205Z,8072.00
2019-02-04T11:13:59.166Z,8136.00
2019-02-04T11:14:59.151Z,8136.00
2019-02-04T11:15:59.169Z,8156.00
2019-02-04T11:16:59.146Z,8172.00
2019-02-04T11:17:59.139Z,8164.00
2019-02-04T11:18:59.088Z,8384.00
2019-02-04T11:19:59.079Z,8536.00
2019-02-04T11:20:59.106Z,8660.00
2019-02-04T11:21:59.063Z,8680.00
2019-02-04T11:22:59.046Z,8784.00
2019-02-04T11:23:59.052Z,8712.00
2019-02-04T11:24:59.019Z,8756.00
2019-02-04T11:25:59.147Z,8808.00
2019-02-04T11:26:59.041Z,8896.00
2019-02-04T11:27:58.996Z,8812.00
2019-02-04T11:28:59.020Z,8916.00
2019-02-04T11:29:59.027Z,8964.00
2019-02-04T11:30:58.955Z,9036.00
2019-02-04T11:31:58.984Z,9240.00
2019-02-04T11:32:58.967Z,9264.00
2019-02-04T11:33:58.918Z,9476.00
2019-02-04T11:34:58.912Z,9508.00
2019-02-04T11:35:59.024Z,9656.00
2019-02-04T11:36:58.944Z,9780.00
2019-02-04T11:37:58.878Z,9764.00
2019-02-04T11:38:58.867Z,9720.00
2019-02-04T11:39:58.881Z,9492.00
2019-02-04T11:40:58.842Z,9492.00
2019-02-04T11:41:58.912Z,9476.00
2019-02-04T11:42:58.836Z,9580.00
2019-02-04T11:43:58.862Z,9628.00
2019-02-04T11:44:58.798Z,9620.00
2019-02-04T11:45:58.793Z,9708.00
2019-02-04T11:46:58.805Z,10036.00
2019-02-04T11:47:58.863Z,9996.00
2019-02-04T11:48:58.757Z,10028.00
2019-02-04T11:49:58.741Z,9936.00
2019-02-04T11:51:09.332Z,10068.00
2019-02-04T11:51:59.749Z,10224.00
2019-02-04T11:52:58.711Z,10320.00
2019-02-04T11:53:58.706Z,10484.00
2019-02-04T11:54:58.702Z,10568.00
2019-02-04T11:55:58.675Z,10504.00
2019-02-04T11:56:58.695Z,10496.00
2019-02-04T11:57:58.652Z,10456.00
2019-02-04T11:58:58.643Z,10316.00
2019-02-04T11:59:58.680Z,10320.00
2019-02-04T12:00:58.640Z,10368.00
2019-02-04T12:01:58.643Z,10600.00
2019-02-04T12:02:58.596Z,10600.00
2019-02-04T12:03:58.585Z,10376.00
2019-02-04T12:04:58.589Z,10544.00
2019-02-04T12:05:58.573Z,10548.00
2019-02-04T12:06:58.582Z,10276.00
2019-02-04T12:07:58.564Z,10172.00
2019-02-04T12:08:58.530Z,10204.00
2019-02-04T12:09:58.519Z,10200.00
2019-02-04T12:10:58.515Z,10064.00
2019-02-04T12:11:58.532Z,10284.00
2019-02-04T12:12:58.488Z,10104.00
2019-02-04T12:13:58.491Z,10132.00
2019-02-04T12:14:58.466Z,10084.00
2019-02-04T12:15:58.456Z,10068.00
2019-02-04T12:16:59.215Z,10132.00
2019-02-04T12:17:58.432Z,9852.00
2019-02-04T12:18:58.419Z,9812.00
2019-02-04T12:19:58.412Z,9608.00
2019-02-04T12:20:58.398Z,9768.00
2019-02-04T12:21:58.431Z,9732.00
2019-02-04T12:22:58.382Z,9352.00
2019-02-04T12:23:58.364Z,9104.00
2019-02-04T12:24:58.362Z,9100.00
2019-02-04T12:25:58.365Z,9040.00
2019-02-04T12:26:58.336Z,9020.00
2019-02-04T12:27:58.347Z,8656.00
2019-02-04T12:28:58.312Z,8576.00
2019-02-04T12:29:58.308Z,8492.00
2019-02-04T12:30:58.289Z,8452.00
2019-02-04T12:31:58.278Z,8564.00
2019-02-04T12:32:58.300Z,8672.00
2019-02-04T12:33:58.270Z,8852.00
2019-02-04T12:34:58.261Z,8996.00
2019-02-04T12:35:58.233Z,9188.00
2019-02-04T12:36:58.228Z,9032.00
2019-02-04T12:37:58.239Z,8516.00
2019-02-04T12:38:58.238Z,8732.00
2019-02-04T12:39:58.194Z,8388.00
2019-02-04T12:40:58.190Z,8424.00
2019-02-04T12:41:58.170Z,8528.00
2019-02-04T12:42:58.183Z,8576.00
2019-02-04T12:43:58.143Z,8400.00
2019-02-04T12:44:58.153Z,8596.00
2019-02-04T12:45:58.125Z,8652.00
2019-02-04T12:46:58.109Z,8748.00
2019-02-04T12:48:00.617Z,8784.00
2019-02-04T12:48:58.091Z,8932.00
2019-02-04T12:49:58.079Z,9188.00
2019-02-04T12:50:58.068Z,9232.00
2019-02-04T12:51:58.071Z,9332.00
2019-02-04T12:52:58.183Z,9248.00
2019-02-04T12:53:58.122Z,9392.00
2019-02-04T12:54:58.025Z,9476.00
2019-02-04T12:55:58.040Z,9660.00
2019-02-04T12:56:58.013Z,9804.00
2019-02-04T12:57:57.997Z,9848.00
2019-02-04T12:58:57.980Z,9796.00
2019-02-04T12:59:58.003Z,9736.00
2019-02-04T13:00:58.043Z,9556.00
2019-02-04T13:01:57.989Z,9360.00
2019-02-04T13:02:58.490Z,9256.00
2019-02-04T13:03:57.923Z,9248.00
2019-02-04T13:04:57.920Z,9152.00
2019-02-04T13:05:57.925Z,9192.00
2019-02-04T13:06:57.888Z,9180.00
2019-02-04T13:07:57.881Z,9128.00
2019-02-04T13:08:57.876Z,8948.00
2019-02-04T13:09:57.857Z,8900.00
2019-02-04T13:10:57.884Z,8856.00
2019-02-04T13:11:57.853Z,8720.00
2019-02-04T13:12:57.823Z,8612.00
2019-02-04T13:13:57.814Z,8496.00
2019-02-04T13:14:57.800Z,8360.00
2019-02-04T13:15:57.847Z,8184.00
2019-02-04T13:16:57.779Z,7976.00
2019-02-04T13:17:57.773Z,7836.00
2019-02-04T13:18:57.757Z,7780.00
2019-02-04T13:19:57.760Z,7764.00
2019-02-04T13:20:57.737Z,7808.00
2019-02-04T13:21:57.755Z,7860.00
2019-02-04T13:22:57.741Z,7932.00
2019-02-04T13:23:57.706Z,8040.00
2019-02-04T13:24:57.690Z,8088.00
2019-02-04T13:25:57.680Z,8124.00
2019-02-04T13:26:57.701Z,8192.00
2019-02-04T13:27:57.669Z,8248.00
2019-02-04T13:28:57.654Z,8328.00
2019-02-04T13:29:57.649Z,8368.00
2019-02-04T13:30:57.626Z,8392.00
2019-02-04T13:31:57.639Z,8476.00
2019-02-04T13:32:57.746Z,8608.00
2019-02-04T13:33:57.613Z,8680.00
2019-02-04T13:34:57.601Z,8764.00
2019-02-04T13:35:57.573Z,8716.00
2019-02-04T13:36:57.582Z,8844.00
2019-02-04T13:37:57.548Z,8736.00
2019-02-04T13:38:57.551Z,8520.00
2019-02-04T13:39:57.524Z,8392.00
2019-02-04T13:41:07.532Z,8264.00
2019-02-04T13:41:58.528Z,8188.00
2019-02-04T13:42:57.528Z,8188.00
2019-02-04T13:43:57.477Z,8136.00
2019-02-04T13:44:57.494Z,8196.00
2019-02-04T13:45:57.463Z,8168.00
2019-02-04T13:46:57.475Z,8092.00
2019-02-04T13:47:57.454Z,8012.00
2019-02-04T13:48:57.422Z,7944.00
2019-02-04T13:49:57.412Z,7908.00
2019-02-04T13:50:57.400Z,7900.00
2019-02-04T13:51:58.009Z,7880.00
2019-02-04T13:52:57.384Z,7832.00
2019-02-04T13:53:57.391Z,7808.00
2019-02-04T13:54:57.362Z,7800.00
2019-02-04T13:55:57.343Z,7820.00
2019-02-04T13:56:57.360Z,7856.00
2019-02-04T13:57:57.326Z,7832.00
2019-02-04T13:58:57.317Z,7912.00
2019-02-04T13:59:57.299Z,7820.00
2019-02-04T14:00:57.333Z,7940.00
2019-02-04T14:01:57.300Z,8236.00
2019-02-04T14:02:59.500Z,8740.00
2019-02-04T14:03:57.256Z,9060.00
2019-02-04T14:04:57.261Z,8712.00
2019-02-04T14:05:57.232Z,8816.00
2019-02-04T14:06:57.244Z,8664.00
2019-02-04T14:07:57.212Z,8484.00
2019-02-04T14:08:57.210Z,8508.00
2019-02-04T14:09:59.213Z,8528.00
2019-02-04T14:10:57.228Z,8312.00
2019-02-04T14:11:57.262Z,7776.00
2019-02-04T14:12:57.163Z,7696.00
2019-02-04T14:13:57.149Z,7352.00
2019-02-04T14:14:57.140Z,7080.00
2019-02-04T14:15:57.131Z,6864.00
2019-02-04T14:16:57.484Z,6816.00
2019-02-04T14:17:57.099Z,6772.00
2019-02-04T14:18:57.086Z,6736.00
2019-02-04T14:19:57.090Z,6796.00
2019-02-04T14:20:57.062Z,6864.00
2019-02-04T14:22:08.656Z,7028.00
2019-02-04T14:22:58.058Z,7224.00
2019-02-04T14:23:57.040Z,7284.00
2019-02-04T14:24:57.017Z,7312.00
2019-02-04T14:25:57.026Z,7408.00
2019-02-04T14:26:57.019Z,7400.00
2019-02-04T14:27:56.985Z,7400.00
2019-02-04T14:28:57.001Z,7260.00
2019-02-04T14:29:56.971Z,7176.00
2019-02-04T14:30:56.980Z,7200.00
2019-02-04T14:31:57.009Z,7276.00
2019-02-04T14:32:56.927Z,7496.00
2019-02-04T14:33:58.146Z,7656.00
2019-02-04T14:34:56.934Z,7932.00
2019-02-04T14:35:56.898Z,7988.00
2019-02-04T14:36:56.913Z,8276.00
2019-02-04T14:37:56.883Z,8124.00
2019-02-04T14:38:56.874Z,8000.00
2019-02-04T14:39:56.852Z,7884.00
2019-02-04T14:40:56.841Z,7776.00
2019-02-04T14:41:56.855Z,7640.00
2019-02-04T14:42:59.667Z,7472.00
2019-02-04T14:43:56.813Z,7324.00
2019-02-04T14:44:56.818Z,7136.00
2019-02-04T14:45:56.788Z,6996.00
2019-02-04T14:46:56.798Z,6832.00
2019-02-04T14:48:05.715Z,6672.00
2019-02-04T14:48:57.755Z,6556.00
2019-02-04T14:49:56.744Z,6344.00
2019-02-04T14:50:56.742Z,6028.00
2019-02-04T14:51:56.743Z,5728.00
2019-02-04T14:52:56.709Z,5388.00
2019-02-04T14:53:56.698Z,5124.00
2019-02-04T14:54:56.689Z,4972.00
2019-02-04T14:55:56.675Z,4928.00
2019-02-04T14:56:56.681Z,4656.00
2019-02-04T14:57:56.676Z,4412.00
2019-02-04T14:58:56.645Z,4016.00
2019-02-04T14:59:56.639Z,3780.00
2019-02-04T15:00:56.619Z,3592.00
2019-02-04T15:01:56.610Z,3428.00
2019-02-04T15:02:56.640Z,3292.00
2019-02-04T15:03:56.588Z,3168.00
2019-02-04T15:04:56.577Z,3056.00
2019-02-04T15:05:56.572Z,2948.00
2019-02-04T15:06:56.553Z,2860.00
2019-02-04T15:07:56.577Z,2776.00
2019-02-04T15:08:56.535Z,2700.00
2019-02-04T15:09:56.640Z,2632.00
2019-02-04T15:10:56.510Z,2576.00
2019-02-04T15:11:56.496Z,2524.00
2019-02-04T15:12:56.513Z,2476.00
2019-02-04T15:13:56.476Z,2440.00
2019-02-04T15:14:56.465Z,2412.00
2019-02-04T15:15:56.453Z,2380.00
2019-02-04T15:16:56.493Z,2344.00
2019-02-04T15:17:56.459Z,2308.00
2019-02-04T15:18:56.420Z,2260.00
2019-02-04T15:19:56.415Z,2216.00
2019-02-04T15:20:56.426Z,2168.00
2019-02-04T15:21:56.413Z,2116.00
2019-02-04T15:22:56.405Z,2072.00
2019-02-04T15:24:08.132Z,2032.00
2019-02-04T15:24:57.354Z,2000.00
2019-02-04T15:25:56.344Z,1964.00
2019-02-04T15:26:56.344Z,1924.00
2019-02-04T15:27:56.347Z,1876.00
2019-02-04T15:28:56.354Z,1828.00
2019-02-04T15:29:56.298Z,1772.00
2019-02-04T15:30:56.287Z,1712.00
2019-02-04T15:31:56.289Z,1652.00
2019-02-04T15:32:56.402Z,1588.00
2019-02-04T15:33:56.273Z,1528.00
2019-02-04T15:35:04.175Z,1464.00
2019-02-04T15:35:57.230Z,1404.00
2019-02-04T15:36:56.231Z,1352.00
2019-02-04T15:37:56.231Z,1304.00
2019-02-04T15:38:56.201Z,1264.00
2019-02-04T15:39:56.187Z,1224.00
2019-02-04T15:40:56.181Z,1188.00
2019-02-04T15:41:56.166Z,1160.00
2019-02-04T15:42:56.188Z,1124.00
2019-02-04T15:43:56.142Z,1100.00
2019-02-04T15:44:56.133Z,1068.00
2019-02-04T15:45:56.120Z,1044.00
2019-02-04T15:46:56.112Z,1016.00
2019-02-04T15:47:56.127Z,992.00
2019-02-04T15:48:56.099Z,952.00
2019-02-04T15:49:56.081Z,920.00
2019-02-04T15:50:56.066Z,884.00
2019-02-04T15:51:56.055Z,848.00
2019-02-04T15:52:56.073Z,820.00
2019-02-04T15:53:56.033Z,792.00
2019-02-04T15:54:56.022Z,768.00
2019-02-04T15:55:56.019Z,744.00
2019-02-04T15:56:56.002Z,720.00
2019-02-04T15:57:56.014Z,696.00
2019-02-04T15:58:55.978Z,672.00
2019-02-04T15:59:55.967Z,644.00
2019-02-04T16:00:55.959Z,620.00
2019-02-04T16:01:55.969Z,600.00
2019-02-04T16:02:55.959Z,576.00
2019-02-04T16:03:55.928Z,560.00
2019-02-04T16:04:55.912Z,540.00
2019-02-04T16:05:55.902Z,524.00
2019-02-04T16:06:55.893Z,508.00
2019-02-04T16:07:55.921Z,492.00
2019-02-04T16:08:55.874Z,476.00
2019-02-04T16:09:55.860Z,460.00
2019-02-04T16:10:55.847Z,440.00
2019-02-04T16:11:55.839Z,420.00
2019-02-04T16:12:55.851Z,400.00
2019-02-04T16:13:55.837Z,380.00
2019-02-04T16:14:55.804Z,360.00
2019-02-04T16:15:55.791Z,344.00
2019-02-04T16:16:55.782Z,328.00
2019-02-04T16:17:55.796Z,312.00
2019-02-04T16:18:55.760Z,296.00
2019-02-04T16:19:55.766Z,284.00
2019-02-04T16:20:55.738Z,272.00
2019-02-04T16:21:55.732Z,260.00
2019-02-04T16:22:58.870Z,240.00
2019-02-04T16:23:55.707Z,224.00
2019-02-04T16:24:55.695Z,212.00
2019-02-04T16:25:55.705Z,196.00
2019-02-04T16:26:55.678Z,180.00
2019-02-04T16:27:55.663Z,164.00
2019-02-04T16:28:55.674Z,152.00
2019-02-04T16:29:55.641Z,140.00
2019-02-04T16:30:55.629Z,124.00
2019-02-04T16:31:55.632Z,112.00
2019-02-04T16:32:55.607Z,100.00
2019-02-04T16:33:55.621Z,92.00
2019-02-04T16:34:55.585Z,80.00
2019-02-04T16:35:55.576Z,72.00
2019-02-04T16:36:55.564Z,64.00
2019-02-04T16:37:55.571Z,56.00
2019-02-04T16:38:55.567Z,48.00
2019-02-04T16:39:55.529Z,44.00
2019-02-04T16:40:55.521Z,36.00
2019-02-04T16:41:55.511Z,32.00
2019-02-04T16:42:55.498Z,28.00
2019-02-04T16:43:55.521Z,24.00
2019-02-04T16:44:55.514Z,20.00
2019-02-04T16:45:55.466Z,16.00
2019-02-04T16:46:55.461Z,12.00
2019-02-04T16:47:55.443Z,12.00
2019-02-04T16:48:55.456Z,8.00
2019-02-04T16:49:55.511Z,4.00
2019-02-04T16:51:10.635Z,4.00
2019-02-04T16:51:56.399Z,8.00
2019-02-04T16:52:55.388Z,4.00
2019-02-04T16:53:55.398Z,4.00
2019-02-04T16:54:55.366Z,4.00
2019-02-04T16:55:55.355Z,4.00
2019-02-04T16:56:55.377Z,0.00
2019-02-04T16:57:55.332Z,4.00
2019-02-04T16:58:55.348Z,4.00
2019-02-04T16:59:55.313Z,4.00
2019-02-04T17:00:55.301Z,0.00
2019-02-04T17:01:55.287Z,0.00
2019-02-04T17:02:55.292Z,0.00
2019-02-04T17:03:55.290Z,0.00
2019-02-04T17:04:55.254Z,0.00
2019-02-04T17:05:55.245Z,0.00
2019-02-04T17:06:55.232Z,0.00
2019-02-04T17:07:55.225Z,0.00
2019-02-04T17:08:55.266Z,0.00
2019-02-04T17:09:55.206Z,0.00
2019-02-04T17:10:55.189Z,0.00
2019-02-04T17:11:55.188Z,0.00
2019-02-04T17:12:55.168Z,0.00
2019-02-04T17:13:55.182Z,0.00
2019-02-04T17:14:55.170Z,0.00
2019-02-04T17:15:55.133Z,0.00
2019-02-04T17:16:55.121Z,0.00
2019-02-04T17:17:55.111Z,0.00
2019-02-04T17:18:55.126Z,0.00
2019-02-04T17:19:55.087Z,0.00
2019-02-04T17:20:55.129Z,0.00
2019-02-04T17:21:55.066Z,0.00
2019-02-04T17:22:55.056Z,0.00
2019-02-04T17:23:55.070Z,0.00
2019-02-04T17:24:55.050Z,0.00
2019-02-04T17:25:55.025Z,0.00
2019-02-04T17:26:55.031Z,0.00
2019-02-04T17:27:55.005Z,0.00
2019-02-04T17:28:55.014Z,0.00
2019-02-04T17:29:54.980Z,0.00
2019-02-04T17:30:54.967Z,0.00
2019-02-04T17:31:54.959Z,0.00
2019-02-04T17:32:54.957Z,0.00
2019-02-04T17:33:54.958Z,0.00
2019-02-04T17:34:54.924Z,0.00
2019-02-04T17:35:54.915Z,0.00
2019-02-04T17:36:54.901Z,0.00
2019-02-04T17:37:54.918Z,0.00
2019-02-04T17:38:54.903Z,0.00
2019-02-04T17:39:54.870Z,0.00
2019-02-04T17:40:54.859Z,0.00
2019-02-04T17:41:54.847Z,0.00
2019-02-04T17:42:54.838Z,0.00
2019-02-04T17:43:54.857Z,0.00
2019-02-04T17:44:54.816Z,0.00
2019-02-04T17:45:54.802Z,0.00
2019-02-04T17:46:54.791Z,0.00
2019-02-04T17:47:54.777Z,0.00
2019-02-04T17:48:54.790Z,0.00
2019-02-04T17:49:54.769Z,0.00
2019-02-04T17:50:54.747Z,0.00
2019-02-04T17:51:54.739Z,0.00
2019-02-04T17:52:54.891Z,0.00
2019-02-04T17:53:54.739Z,0.00
2019-02-04T17:54:54.704Z,0.00
2019-02-04T17:55:54.711Z,0.00
2019-02-04T17:56:54.683Z,0.00
2019-02-04T17:57:54.672Z,0.00
2019-02-04T17:58:54.723Z,0.00
2019-02-04T17:59:54.665Z,0.00
2019-02-04T18:00:54.679Z,0.00
2019-02-04T18:01:54.648Z,0.00
2019-02-04T18:02:54.622Z,0.00
2019-02-04T18:03:54.603Z,0.00
2019-02-04T18:04:54.749Z,0.00
2019-02-04T18:05:54.605Z,0.00
2019-02-04T18:06:54.569Z,0.00
2019-02-04T18:07:54.576Z,0.00
2019-02-04T18:08:54.579Z,0.00
2019-02-04T18:09:54.558Z,0.00
2019-02-04T18:10:54.523Z,0.00
2019-02-04T18:11:54.512Z,0.00
2019-02-04T18:12:54.502Z,0.00
2019-02-04T18:13:54.493Z,0.00
2019-02-04T18:14:54.539Z,0.00
2019-02-04T18:15:54.480Z,0.00
2019-02-04T18:16:54.458Z,0.00
2019-02-04T18:17:54.450Z,0.00
2019-02-04T18:18:54.434Z,0.00
2019-02-04T18:19:54.454Z,0.00
2019-02-04T18:20:54.433Z,0.00
2019-02-04T18:21:54.411Z,0.00
2019-02-04T18:22:54.387Z,0.00
2019-02-04T18:23:54.380Z,0.00
2019-02-04T18:24:54.388Z,0.00
2019-02-04T18:25:54.358Z,0.00
2019-02-04T18:26:54.351Z,0.00
2019-02-04T18:27:54.332Z,0.00
2019-02-04T18:28:54.321Z,0.00
2019-02-04T18:29:54.335Z,0.00
2019-02-04T18:30:54.299Z,0.00
2019-02-04T18:31:54.291Z,0.00
2019-02-04T18:32:54.296Z,0.00
2019-02-04T18:33:54.265Z,0.00
2019-02-04T18:34:54.277Z,0.00
2019-02-04T18:35:54.246Z,0.00
2019-02-04T18:36:54.237Z,0.00
2019-02-04T18:37:54.220Z,0.00
2019-02-04T18:38:54.238Z,0.00
2019-02-04T18:39:54.224Z,0.00
2019-02-04T18:40:54.188Z,0.00
2019-02-04T18:41:55.630Z,0.00
2019-02-04T18:42:54.167Z,0.00
2019-02-04T18:43:54.158Z,0.00
2019-02-04T18:44:54.196Z,0.00
2019-02-04T18:45:54.136Z,0.00
2019-02-04T18:46:54.123Z,0.00
2019-02-04T18:47:54.113Z,0.00
2019-02-04T18:48:54.100Z,0.00
2019-02-04T18:49:54.115Z,0.00
2019-02-04T18:50:54.095Z,0.00
2019-02-04T18:51:54.069Z,0.00
2019-02-04T18:52:54.055Z,0.00
2019-02-04T18:53:57.730Z,0.00
2019-02-04T18:54:54.057Z,0.00
2019-02-04T18:55:54.026Z,0.00
2019-02-04T18:56:54.029Z,0.00
2019-02-04T18:57:54.004Z,0.00
2019-02-04T18:58:53.996Z,0.00
2019-02-04T18:59:54.005Z,0.00
2019-02-04T19:00:53.981Z,0.00
2019-02-04T19:01:53.957Z,0.00
2019-02-04T19:02:53.976Z,0.00
2019-02-04T19:03:53.936Z,0.00
2019-02-04T19:04:53.970Z,0.00
2019-02-04T19:05:53.916Z,0.00
2019-02-04T19:06:53.907Z,0.00
2019-02-04T19:07:53.893Z,0.00
2019-02-04T19:08:53.891Z,0.00
2019-02-04T19:09:53.909Z,0.00
2019-02-04T19:10:53.862Z,0.00
2019-02-04T19:11:55.535Z,0.00
2019-02-04T19:12:53.841Z,0.00
2019-02-04T19:13:53.829Z,0.00
2019-02-04T19:14:54.801Z,0.00
2019-02-04T19:15:53.833Z,0.00
2019-02-04T19:16:53.795Z,0.00
2019-02-04T19:17:53.782Z,0.00
2019-02-04T19:18:53.775Z,0.00
2019-02-04T19:19:53.784Z,0.00
2019-02-04T19:20:53.751Z,0.00
2019-02-04T19:21:53.746Z,0.00
2019-02-04T19:22:53.730Z,0.00
2019-02-04T19:23:53.719Z,0.00
2019-02-04T19:24:53.732Z,0.00
2019-02-04T19:25:53.696Z,0.00
2019-02-04T19:26:54.159Z,0.00
2019-02-04T19:27:53.688Z,0.00
2019-02-04T19:28:53.663Z,0.00
2019-02-04T19:29:53.684Z,0.00
2019-02-04T19:30:53.644Z,0.00
2019-02-04T19:31:53.634Z,0.00
2019-02-04T19:32:53.619Z,0.00
2019-02-04T19:33:53.621Z,0.00
2019-02-04T19:34:53.654Z,0.00
2019-02-04T19:35:53.590Z,0.00
2019-02-04T19:36:53.575Z,0.00
2019-02-04T19:37:53.565Z,0.00
2019-02-04T19:38:53.555Z,0.00
2019-02-04T19:39:53.554Z,0.00
2019-02-04T19:40:53.557Z,0.00
2019-02-04T19:41:53.521Z,0.00
2019-02-04T19:42:53.512Z,0.00
2019-02-04T19:43:53.499Z,0.00
2019-02-04T19:44:53.494Z,0.00
2019-02-04T19:45:53.513Z,0.00
2019-02-04T19:46:53.478Z,0.00
2019-02-04T19:47:53.458Z,0.00
2019-02-04T19:48:53.444Z,0.00
2019-02-04T19:49:53.436Z,0.00
2019-02-04T19:50:53.445Z,0.00
2019-02-04T19:51:55.296Z,0.00
2019-02-04T19:52:53.406Z,0.00
2019-02-04T19:53:53.389Z,0.00
2019-02-04T19:54:53.377Z,0.00
2019-02-04T19:55:53.388Z,0.00
2019-02-04T19:56:53.358Z,0.00
2019-02-04T19:57:53.362Z,0.00
2019-02-04T19:58:53.334Z,0.00
2019-02-04T19:59:53.326Z,0.00
2019-02-04T20:00:53.333Z,0.00
2019-02-04T20:01:53.299Z,0.00
2019-02-04T20:02:53.287Z,0.00
2019-02-04T20:03:53.296Z,0.00
2019-02-04T20:04:53.294Z,0.00
2019-02-04T20:05:53.280Z,0.00
2019-02-04T20:06:53.248Z,0.00
2019-02-04T20:07:53.232Z,0.00
2019-02-04T20:08:53.240Z,0.00
2019-02-04T20:09:53.209Z,0.00
2019-02-04T20:10:53.243Z,0.00
2019-02-04T20:11:53.187Z,0.00
2019-02-04T20:12:53.176Z,0.00
2019-02-04T20:13:53.167Z,0.00
2019-02-04T20:14:56.096Z,0.00
2019-02-04T20:15:53.169Z,0.00
2019-02-04T20:16:53.148Z,0.00
2019-02-04T20:17:53.129Z,0.00
2019-02-04T20:18:53.110Z,0.00
2019-02-04T20:19:53.099Z,0.00
2019-02-04T20:20:53.116Z,0.00
2019-02-04T20:21:53.082Z,0.00
2019-02-04T20:22:53.080Z,0.00
2019-02-04T20:23:53.058Z,0.00
2019-02-04T20:24:53.046Z,0.00
2019-02-04T20:25:53.056Z,0.00
2019-02-04T20:26:53.022Z,0.00
2019-02-04T20:27:53.011Z,0.00
2019-02-04T20:28:53.025Z,0.00
2019-02-04T20:29:52.991Z,0.00
2019-02-04T20:30:53.015Z,0.00
2019-02-04T20:31:52.968Z,0.00
2019-02-04T20:32:52.956Z,0.00
2019-02-04T20:33:52.945Z,0.00
2019-02-04T20:34:52.952Z,0.00
2019-02-04T20:35:52.946Z,0.00
2019-02-04T20:36:52.914Z,0.00
2019-02-04T20:37:52.902Z,0.00
2019-02-04T20:38:52.891Z,0.00
2019-02-04T20:39:52.881Z,0.00
2019-02-04T20:40:52.925Z,0.00
2019-02-04T20:41:52.860Z,0.00
2019-02-04T20:42:52.848Z,0.00
2019-02-04T20:43:52.837Z,0.00
2019-02-04T20:44:52.823Z,0.00
2019-02-04T20:45:52.878Z,0.00
2019-02-04T20:46:52.804Z,0.00
2019-02-04T20:47:52.792Z,0.00
2019-02-04T20:48:52.781Z,0.00
2019-02-04T20:49:52.768Z,0.00
2019-02-04T20:50:52.757Z,0.00
2019-02-04T20:51:52.772Z,0.00
2019-02-04T20:52:52.765Z,0.00
2019-02-04T20:53:52.734Z,0.00
2019-02-04T20:54:52.722Z,0.00
2019-02-04T20:55:52.703Z,0.00
2019-02-04T20:56:52.717Z,0.00
2019-02-04T20:57:52.681Z,0.00
2019-02-04T20:58:52.669Z,0.00
2019-02-04T20:59:52.692Z,0.00
2019-02-04T21:00:52.650Z,0.00
2019-02-04T21:01:52.665Z,0.00
2019-02-04T21:02:52.627Z,0.00
2019-02-04T21:03:52.613Z,0.00
2019-02-04T21:04:52.603Z,0.00
2019-02-04T21:05:52.606Z,0.00
2019-02-04T21:06:56.068Z,0.00
2019-02-04T21:07:52.571Z,0.00
2019-02-04T21:08:52.558Z,0.00
2019-02-04T21:09:52.548Z,0.00
2019-02-04T21:10:52.535Z,0.00
2019-02-04T21:11:52.569Z,0.00
2019-02-04T21:12:52.513Z,0.00
2019-02-04T21:13:52.503Z,0.00
2019-02-04T21:14:52.497Z,0.00
2019-02-04T21:15:52.482Z,0.00
2019-02-04T21:16:52.494Z,0.00
2019-02-04T21:17:52.468Z,0.00
2019-02-04T21:18:52.449Z,0.00
2019-02-04T21:19:52.440Z,0.00
2019-02-04T21:20:52.426Z,0.00
2019-02-04T21:21:52.439Z,0.00
2019-02-04T21:22:52.407Z,0.00
2019-02-04T21:23:52.413Z,0.00
2019-02-04T21:24:56.460Z,0.00
2019-02-04T21:25:52.378Z,0.00
2019-02-04T21:26:52.394Z,0.00
2019-02-04T21:27:52.350Z,0.00
2019-02-04T21:28:52.340Z,0.00
2019-02-04T21:29:52.332Z,0.00
2019-02-04T21:30:52.317Z,0.00
2019-02-04T21:31:52.305Z,0.00
2019-02-04T21:32:52.317Z,0.00
2019-02-04T21:33:52.285Z,0.00
2019-02-04T21:34:52.279Z,0.00
2019-02-04T21:35:52.275Z,0.00
2019-02-04T21:36:52.249Z,0.00
2019-02-04T21:37:52.263Z,0.00
2019-02-04T21:38:52.227Z,0.00
2019-02-04T21:39:52.222Z,0.00
2019-02-04T21:40:52.207Z,0.00
2019-02-04T21:41:52.227Z,0.00
2019-02-04T21:42:52.222Z,0.00
2019-02-04T21:43:52.176Z,0.00
2019-02-04T21:44:52.168Z,0.00
2019-02-04T21:45:52.151Z,0.00
2019-02-04T21:46:52.140Z,0.00
2019-02-04T21:47:52.188Z,0.00
2019-02-04T21:48:52.120Z,0.00
2019-02-04T21:49:52.116Z,0.00
2019-02-04T21:50:52.100Z,0.00
2019-02-04T21:51:52.086Z,0.00
2019-02-04T21:52:52.074Z,0.00
2019-02-04T21:53:52.106Z,0.00
2019-02-04T21:54:52.053Z,0.00
2019-02-04T21:55:52.043Z,0.00
2019-02-04T21:56:52.036Z,0.00
2019-02-04T21:57:52.019Z,0.00
2019-02-04T21:58:52.034Z,0.00
2019-02-04T21:59:51.999Z,0.00
2019-02-04T22:00:52.015Z,0.00
2019-02-04T22:01:51.976Z,0.00
2019-02-04T22:02:51.967Z,0.00
2019-02-04T22:03:51.983Z,0.00
2019-02-04T22:04:51.944Z,0.00
2019-02-04T22:05:51.936Z,0.00
2019-02-04T22:06:51.931Z,0.00
2019-02-04T22:07:51.913Z,0.00
2019-02-04T22:08:51.923Z,0.00
2019-02-04T22:09:51.890Z,0.00
2019-02-04T22:10:51.878Z,0.00
2019-02-04T22:11:51.866Z,0.00
2019-02-04T22:12:51.865Z,0.00
2019-02-04T22:13:51.868Z,0.00
2019-02-04T22:14:51.833Z,0.00
2019-02-04T22:15:51.836Z,0.00
2019-02-04T22:16:51.812Z,0.00
2019-02-04T22:17:51.803Z,0.00
2019-02-04T22:18:51.881Z,0.00
2019-02-04T22:19:51.779Z,0.00
2019-02-04T22:20:51.770Z,0.00
2019-02-04T22:21:51.757Z,0.00
2019-02-04T22:22:51.763Z,0.00
2019-02-04T22:23:51.761Z,0.00
2019-02-04T22:24:51.743Z,0.00
2019-02-04T22:25:51.717Z,0.00
2019-02-04T22:26:51.704Z,0.00
2019-02-04T22:27:51.693Z,0.00
2019-02-04T22:28:51.706Z,0.00
2019-02-04T22:29:51.673Z,0.00
2019-02-04T22:30:51.697Z,0.00
2019-02-04T22:31:51.649Z,0.00
2019-02-04T22:32:51.641Z,0.00
2019-02-04T22:33:51.652Z,0.00
2019-02-04T22:34:51.617Z,0.00
2019-02-04T22:35:51.606Z,0.00
2019-02-04T22:36:51.608Z,0.00
2019-02-04T22:37:51.593Z,0.00
2019-02-04T22:38:51.598Z,0.00
2019-02-04T22:39:51.562Z,0.00
2019-02-04T22:40:51.557Z,0.00
2019-02-04T22:41:51.539Z,0.00
2019-02-04T22:42:51.544Z,0.00
2019-02-04T22:43:51.547Z,0.00
2019-02-04T22:44:51.509Z,0.00
2019-02-04T22:45:51.495Z,0.00
2019-02-04T22:46:51.485Z,0.00
2019-02-04T22:47:51.473Z,0.00
2019-02-04T22:48:51.503Z,0.00
2019-02-04T22:49:51.452Z,0.00
2019-02-04T22:50:51.439Z,0.00
2019-02-04T22:51:51.433Z,0.00
2019-02-04T22:52:51.417Z,0.00
2019-02-04T22:53:51.433Z,0.00
2019-02-04T22:54:51.431Z,0.00
2019-02-04T22:55:51.386Z,0.00
2019-02-04T22:56:51.388Z,0.00